KJYM

Hillsdale Municipal Airport

Hillsdale, Michigan, USA
METAR KJYM 151315Z AUTO 22008KT 10SM BKN023 OVC028 M06/M10 A2986 RMK AO2
Observed Flight Rules
Dec-15 @ 13:15 UTC (34 minutes ago) Marginal Visual Flight Rules
Wind Visibility Clouds
220° at 8 knots 10 miles
  • Broken at 2,300' AGL
  • Overcast at 2,800' AGL
Temperatures Readings
Current -6°C / 21°F
Dewpoint -10°C / 14°F
Humidity 74%
Altimeter 29.86" Hg
Pressure 1011 hPa
Elevation 360
METAR KJYM 151315Z AUTO 22008KT 10SM BKN023 OVC028 M06/M10 A2986 RMK AO2
Observed Flight Rules
Dec-15 @ 13:15 UTC
(34 minutes ago)
MVFR
Wind Visibility
220° at 8 knots 10 miles
Clouds
  • Broken at 2,300' AGL
  • Overcast at 2,800' AGL
Temperature Dewpoint
-6°C / 21°F -10°C / 14°F
Humidity Altimeter Pressure
74% 29.86" Hg 1011 hPa